sensor_id;sensor_type;location;lat;lon;timestamp;P1;durP1;ratioP1;P2;durP2;ratioP2
40288;SDS011;28991;52.028;5.526;2023-07-28T00:00:05;0.20;;;0.20;;
40288;SDS011;28991;52.028;5.526;2023-07-28T00:02:31;0.20;;;0.20;;
40288;SDS011;28991;52.028;5.526;2023-07-28T00:04:57;0.22;;;0.20;;
40288;SDS011;28991;52.028;5.526;2023-07-28T00:07:22;0.20;;;0.20;;
40288;SDS011;28991;52.028;5.526;2023-07-28T00:09:48;0.20;;;0.20;;
40288;SDS011;28991;52.028;5.526;2023-07-28T00:12:14;0.20;;;0.20;;
40288;SDS011;28991;52.028;5.526;2023-07-28T00:14:39;0.30;;;0.30;;
40288;SDS011;28991;52.028;5.526;2023-07-28T00:17:05;0.20;;;0.20;;
40288;SDS011;28991;52.028;5.526;2023-07-28T00:19:30;0.20;;;0.20;;
40288;SDS011;28991;52.028;5.526;2023-07-28T00:21:56;0.20;;;0.20;;
40288;SDS011;28991;52.028;5.526;2023-07-28T00:24:21;0.20;;;0.20;;
40288;SDS011;28991;52.028;5.526;2023-07-28T00:26:47;0.22;;;0.22;;
40288;SDS011;28991;52.028;5.526;2023-07-28T00:29:13;0.20;;;0.20;;
40288;SDS011;28991;52.028;5.526;2023-07-28T00:31:38;0.20;;;0.20;;
40288;SDS011;28991;52.028;5.526;2023-07-28T00:34:04;0.20;;;0.20;;
40288;SDS011;28991;52.028;5.526;2023-07-28T00:36:30;0.30;;;0.30;;
40288;SDS011;28991;52.028;5.526;2023-07-28T00:38:56;0.30;;;0.30;;
40288;SDS011;28991;52.028;5.526;2023-07-28T00:41:24;0.20;;;0.20;;
40288;SDS011;28991;52.028;5.526;2023-07-28T00:43:50;0.20;;;0.20;;
40288;SDS011;28991;52.028;5.526;2023-07-28T00:46:16;0.20;;;0.20;;
40288;SDS011;28991;52.028;5.526;2023-07-28T00:48:42;0.20;;;0.20;;
40288;SDS011;28991;52.028;5.526;2023-07-28T00:51:09;0.20;;;0.20;;
40288;SDS011;28991;52.028;5.526;2023-07-28T00:53:35;0.30;;;0.30;;
40288;SDS011;28991;52.028;5.526;2023-07-28T00:56:02;0.10;;;0.10;;
40288;SDS011;28991;52.028;5.526;2023-07-28T00:58:29;0.20;;;0.20;;
40288;SDS011;28991;52.028;5.526;2023-07-28T01:00:55;0.20;;;0.20;;
40288;SDS011;28991;52.028;5.526;2023-07-28T01:03:21;0.20;;;0.20;;
40288;SDS011;28991;52.028;5.526;2023-07-28T01:05:55;0.20;;;0.20;;
40288;SDS011;28991;52.028;5.526;2023-07-28T01:11:06;0.20;;;0.20;;
40288;SDS011;28991;52.028;5.526;2023-07-28T01:13:32;0.10;;;0.10;;
40288;SDS011;28991;52.028;5.526;2023-07-28T01:15:58;0.20;;;0.20;;
40288;SDS011;28991;52.028;5.526;2023-07-28T01:18:25;0.25;;;0.25;;
40288;SDS011;28991;52.028;5.526;2023-07-28T01:20:52;0.30;;;0.30;;
40288;SDS011;28991;52.028;5.526;2023-07-28T01:23:25;0.28;;;0.20;;
40288;SDS011;28991;52.028;5.526;2023-07-28T01:28:36;0.30;;;0.30;;
40288;SDS011;28991;52.028;5.526;2023-07-28T01:31:05;0.15;;;0.15;;
40288;SDS011;28991;52.028;5.526;2023-07-28T01:33:31;0.20;;;0.20;;
40288;SDS011;28991;52.028;5.526;2023-07-28T01:35:57;0.20;;;0.20;;
40288;SDS011;28991;52.028;5.526;2023-07-28T01:38:25;0.30;;;0.30;;
40288;SDS011;28991;52.028;5.526;2023-07-28T01:40:50;0.30;;;0.30;;
40288;SDS011;28991;52.028;5.526;2023-07-28T01:43:16;0.30;;;0.30;;
40288;SDS011;28991;52.028;5.526;2023-07-28T01:45:42;0.30;;;0.30;;
40288;SDS011;28991;52.028;5.526;2023-07-28T01:48:07;0.20;;;0.20;;
40288;SDS011;28991;52.028;5.526;2023-07-28T01:50:36;0.30;;;0.30;;
40288;SDS011;28991;52.028;5.526;2023-07-28T01:53:02;0.30;;;0.30;;
40288;SDS011;28991;52.028;5.526;2023-07-28T01:55:28;0.25;;;0.22;;
40288;SDS011;28991;52.028;5.526;2023-07-28T01:57:55;0.22;;;0.22;;
40288;SDS011;28991;52.028;5.526;2023-07-28T02:00:22;0.30;;;0.30;;
40288;SDS011;28991;52.028;5.526;2023-07-28T02:02:49;0.20;;;0.20;;
40288;SDS011;28991;52.028;5.526;2023-07-28T02:05:14;0.20;;;0.20;;
40288;SDS011;28991;52.028;5.526;2023-07-28T02:07:40;0.20;;;0.20;;
40288;SDS011;28991;52.028;5.526;2023-07-28T02:10:06;0.30;;;0.30;;
40288;SDS011;28991;52.028;5.526;2023-07-28T02:12:32;0.20;;;0.20;;
40288;SDS011;28991;52.028;5.526;2023-07-28T02:14:58;0.13;;;0.13;;
40288;SDS011;28991;52.028;5.526;2023-07-28T02:17:24;0.30;;;0.30;;
40288;SDS011;28991;52.028;5.526;2023-07-28T02:19:50;0.30;;;0.30;;
40288;SDS011;28991;52.028;5.526;2023-07-28T02:22:15;0.20;;;0.20;;
40288;SDS011;28991;52.028;5.526;2023-07-28T02:24:41;0.20;;;0.20;;
40288;SDS011;28991;52.028;5.526;2023-07-28T02:27:06;0.20;;;0.20;;
40288;SDS011;28991;52.028;5.526;2023-07-28T02:29:32;0.20;;;0.20;;
40288;SDS011;28991;52.028;5.526;2023-07-28T02:31:57;0.30;;;0.30;;
40288;SDS011;28991;52.028;5.526;2023-07-28T02:34:23;0.25;;;0.25;;
40288;SDS011;28991;52.028;5.526;2023-07-28T02:36:49;0.22;;;0.22;;
40288;SDS011;28991;52.028;5.526;2023-07-28T02:39:14;0.20;;;0.20;;
40288;SDS011;28991;52.028;5.526;2023-07-28T02:41:40;0.30;;;0.30;;
40288;SDS011;28991;52.028;5.526;2023-07-28T02:44:05;0.20;;;0.20;;
40288;SDS011;28991;52.028;5.526;2023-07-28T02:46:31;0.28;;;0.28;;
40288;SDS011;28991;52.028;5.526;2023-07-28T02:48:57;0.20;;;0.20;;
40288;SDS011;28991;52.028;5.526;2023-07-28T02:51:22;0.20;;;0.20;;
40288;SDS011;28991;52.028;5.526;2023-07-28T02:53:48;0.30;;;0.20;;
40288;SDS011;28991;52.028;5.526;2023-07-28T02:56:13;0.20;;;0.20;;
40288;SDS011;28991;52.028;5.526;2023-07-28T02:58:39;0.30;;;0.30;;
40288;SDS011;28991;52.028;5.526;2023-07-28T03:01:04;0.10;;;0.10;;
40288;SDS011;28991;52.028;5.526;2023-07-28T03:03:30;0.20;;;0.20;;
40288;SDS011;28991;52.028;5.526;2023-07-28T03:05:55;0.30;;;0.30;;
40288;SDS011;28991;52.028;5.526;2023-07-28T03:08:21;0.30;;;0.30;;
40288;SDS011;28991;52.028;5.526;2023-07-28T03:10:47;0.10;;;0.10;;
40288;SDS011;28991;52.028;5.526;2023-07-28T03:13:12;0.30;;;0.30;;
40288;SDS011;28991;52.028;5.526;2023-07-28T03:15:38;0.20;;;0.20;;
40288;SDS011;28991;52.028;5.526;2023-07-28T03:18:03;0.20;;;0.20;;
40288;SDS011;28991;52.028;5.526;2023-07-28T03:20:29;0.20;;;0.20;;
40288;SDS011;28991;52.028;5.526;2023-07-28T03:22:55;0.20;;;0.20;;
40288;SDS011;28991;52.028;5.526;2023-07-28T03:25:21;0.28;;;0.28;;
40288;SDS011;28991;52.028;5.526;2023-07-28T03:27:46;0.20;;;0.20;;
40288;SDS011;28991;52.028;5.526;2023-07-28T03:30:12;0.30;;;0.30;;
40288;SDS011;28991;52.028;5.526;2023-07-28T03:32:38;0.20;;;0.20;;
40288;SDS011;28991;52.028;5.526;2023-07-28T03:35:04;0.22;;;0.22;;
40288;SDS011;28991;52.028;5.526;2023-07-28T03:37:31;0.30;;;0.30;;
40288;SDS011;28991;52.028;5.526;2023-07-28T03:39:57;0.20;;;0.20;;
40288;SDS011;28991;52.028;5.526;2023-07-28T03:42:22;0.22;;;0.22;;
40288;SDS011;28991;52.028;5.526;2023-07-28T03:44:48;0.20;;;0.20;;
40288;SDS011;28991;52.028;5.526;2023-07-28T03:47:14;0.17;;;0.17;;
40288;SDS011;28991;52.028;5.526;2023-07-28T03:49:39;0.30;;;0.30;;
40288;SDS011;28991;52.028;5.526;2023-07-28T03:52:05;0.20;;;0.20;;
40288;SDS011;28991;52.028;5.526;2023-07-28T03:54:31;0.20;;;0.20;;
40288;SDS011;28991;52.028;5.526;2023-07-28T03:56:56;0.40;;;0.38;;
40288;SDS011;28991;52.028;5.526;2023-07-28T03:59:22;0.22;;;0.22;;
40288;SDS011;28991;52.028;5.526;2023-07-28T04:01:47;0.10;;;0.10;;
40288;SDS011;28991;52.028;5.526;2023-07-28T04:04:13;0.20;;;0.20;;
40288;SDS011;28991;52.028;5.526;2023-07-28T04:06:40;0.30;;;0.30;;
40288;SDS011;28991;52.028;5.526;2023-07-28T04:09:11;0.28;;;0.28;;
40288;SDS011;28991;52.028;5.526;2023-07-28T04:11:37;0.30;;;0.30;;
40288;SDS011;28991;52.028;5.526;2023-07-28T04:14:03;0.20;;;0.20;;
40288;SDS011;28991;52.028;5.526;2023-07-28T04:16:29;0.20;;;0.20;;
40288;SDS011;28991;52.028;5.526;2023-07-28T04:18:55;0.20;;;0.20;;
40288;SDS011;28991;52.028;5.526;2023-07-28T04:21:21;0.15;;;0.15;;
40288;SDS011;28991;52.028;5.526;2023-07-28T04:23:47;0.20;;;0.20;;
40288;SDS011;28991;52.028;5.526;2023-07-28T04:26:13;0.30;;;0.30;;
40288;SDS011;28991;52.028;5.526;2023-07-28T04:28:38;0.30;;;0.30;;
40288;SDS011;28991;52.028;5.526;2023-07-28T04:31:04;0.20;;;0.20;;
40288;SDS011;28991;52.028;5.526;2023-07-28T04:33:30;0.30;;;0.30;;
40288;SDS011;28991;52.028;5.526;2023-07-28T04:35:56;0.20;;;0.20;;
40288;SDS011;28991;52.028;5.526;2023-07-28T04:38:21;0.20;;;0.20;;
40288;SDS011;28991;52.028;5.526;2023-07-28T04:40:47;0.35;;;0.35;;
40288;SDS011;28991;52.028;5.526;2023-07-28T04:43:12;0.17;;;0.17;;
40288;SDS011;28991;52.028;5.526;2023-07-28T04:45:38;0.30;;;0.30;;
40288;SDS011;28991;52.028;5.526;2023-07-28T04:48:03;0.30;;;0.30;;
40288;SDS011;28991;52.028;5.526;2023-07-28T04:50:29;0.20;;;0.20;;
40288;SDS011;28991;52.028;5.526;2023-07-28T04:52:56;0.30;;;0.30;;
40288;SDS011;28991;52.028;5.526;2023-07-28T04:55:22;0.20;;;0.20;;
40288;SDS011;28991;52.028;5.526;2023-07-28T04:57:47;0.20;;;0.20;;
40288;SDS011;28991;52.028;5.526;2023-07-28T05:00:13;0.20;;;0.20;;
40288;SDS011;28991;52.028;5.526;2023-07-28T05:02:39;0.30;;;0.30;;
40288;SDS011;28991;52.028;5.526;2023-07-28T05:05:04;0.30;;;0.30;;
40288;SDS011;28991;52.028;5.526;2023-07-28T05:07:30;0.20;;;0.20;;
40288;SDS011;28991;52.028;5.526;2023-07-28T05:09:56;0.20;;;0.20;;
40288;SDS011;28991;52.028;5.526;2023-07-28T05:12:21;0.20;;;0.20;;
40288;SDS011;28991;52.028;5.526;2023-07-28T05:14:47;0.30;;;0.30;;
40288;SDS011;28991;52.028;5.526;2023-07-28T05:17:12;0.20;;;0.20;;
40288;SDS011;28991;52.028;5.526;2023-07-28T05:19:38;0.25;;;0.25;;
40288;SDS011;28991;52.028;5.526;2023-07-28T05:22:03;0.20;;;0.20;;
40288;SDS011;28991;52.028;5.526;2023-07-28T05:24:31;0.28;;;0.28;;
40288;SDS011;28991;52.028;5.526;2023-07-28T05:26:57;0.20;;;0.20;;
40288;SDS011;28991;52.028;5.526;2023-07-28T05:29:23;0.30;;;0.30;;
40288;SDS011;28991;52.028;5.526;2023-07-28T05:31:48;0.30;;;0.30;;
40288;SDS011;28991;52.028;5.526;2023-07-28T05:34:14;0.30;;;0.30;;
40288;SDS011;28991;52.028;5.526;2023-07-28T05:36:40;0.30;;;0.30;;
40288;SDS011;28991;52.028;5.526;2023-07-28T05:39:06;0.20;;;0.20;;
40288;SDS011;28991;52.028;5.526;2023-07-28T05:41:31;0.30;;;0.30;;
40288;SDS011;28991;52.028;5.526;2023-07-28T05:43:57;0.30;;;0.30;;
40288;SDS011;28991;52.028;5.526;2023-07-28T05:46:23;0.22;;;0.22;;
40288;SDS011;28991;52.028;5.526;2023-07-28T05:48:48;0.32;;;0.32;;
40288;SDS011;28991;52.028;5.526;2023-07-28T05:51:14;0.40;;;0.40;;
40288;SDS011;28991;52.028;5.526;2023-07-28T05:53:39;0.50;;;0.50;;
40288;SDS011;28991;52.028;5.526;2023-07-28T05:56:05;0.47;;;0.47;;
40288;SDS011;28991;52.028;5.526;2023-07-28T05:58:31;0.43;;;0.43;;
40288;SDS011;28991;52.028;5.526;2023-07-28T06:00:56;0.88;;;0.60;;
40288;SDS011;28991;52.028;5.526;2023-07-28T06:03:22;1.05;;;0.73;;
40288;SDS011;28991;52.028;5.526;2023-07-28T06:05:48;0.50;;;0.50;;
40288;SDS011;28991;52.028;5.526;2023-07-28T06:08:13;1.73;;;0.88;;
40288;SDS011;28991;52.028;5.526;2023-07-28T06:10:39;0.85;;;0.60;;
40288;SDS011;28991;52.028;5.526;2023-07-28T06:13:04;1.55;;;0.50;;
40288;SDS011;28991;52.028;5.526;2023-07-28T06:15:30;0.90;;;0.75;;
40288;SDS011;28991;52.028;5.526;2023-07-28T06:17:56;0.98;;;0.63;;
40288;SDS011;28991;52.028;5.526;2023-07-28T06:20:22;0.65;;;0.65;;
40288;SDS011;28991;52.028;5.526;2023-07-28T06:22:47;1.85;;;1.05;;
40288;SDS011;28991;52.028;5.526;2023-07-28T06:25:13;0.75;;;0.75;;
40288;SDS011;28991;52.028;5.526;2023-07-28T06:27:39;1.70;;;1.00;;
40288;SDS011;28991;52.028;5.526;2023-07-28T06:30:05;1.83;;;1.10;;
40288;SDS011;28991;52.028;5.526;2023-07-28T06:32:31;0.98;;;0.98;;
40288;SDS011;28991;52.028;5.526;2023-07-28T06:34:56;1.52;;;0.85;;
40288;SDS011;28991;52.028;5.526;2023-07-28T06:37:22;1.00;;;0.93;;
40288;SDS011;28991;52.028;5.526;2023-07-28T06:39:48;1.25;;;0.90;;
40288;SDS011;28991;52.028;5.526;2023-07-28T06:42:14;1.35;;;1.13;;
40288;SDS011;28991;52.028;5.526;2023-07-28T06:44:41;1.67;;;1.00;;
40288;SDS011;28991;52.028;5.526;2023-07-28T06:47:07;0.80;;;0.80;;
40288;SDS011;28991;52.028;5.526;2023-07-28T06:49:33;1.33;;;1.17;;
40288;SDS011;28991;52.028;5.526;2023-07-28T06:51:58;0.90;;;0.90;;
40288;SDS011;28991;52.028;5.526;2023-07-28T06:54:24;1.08;;;0.98;;
40288;SDS011;28991;52.028;5.526;2023-07-28T06:56:50;1.23;;;1.08;;
40288;SDS011;28991;52.028;5.526;2023-07-28T06:59:15;1.20;;;1.10;;
40288;SDS011;28991;52.028;5.526;2023-07-28T07:01:41;1.27;;;0.80;;
40288;SDS011;28991;52.028;5.526;2023-07-28T07:04:06;1.30;;;1.15;;
40288;SDS011;28991;52.028;5.526;2023-07-28T07:06:32;1.25;;;1.00;;
40288;SDS011;28991;52.028;5.526;2023-07-28T07:08:58;1.27;;;1.17;;
40288;SDS011;28991;52.028;5.526;2023-07-28T07:11:23;0.88;;;0.88;;
40288;SDS011;28991;52.028;5.526;2023-07-28T07:13:49;1.15;;;0.90;;
40288;SDS011;28991;52.028;5.526;2023-07-28T07:16:15;1.55;;;1.15;;
40288;SDS011;28991;52.028;5.526;2023-07-28T07:18:41;1.27;;;0.90;;
40288;SDS011;28991;52.028;5.526;2023-07-28T07:21:08;0.95;;;0.82;;
40288;SDS011;28991;52.028;5.526;2023-07-28T07:23:34;0.88;;;0.80;;
40288;SDS011;28991;52.028;5.526;2023-07-28T07:26:00;1.38;;;1.27;;
40288;SDS011;28991;52.028;5.526;2023-07-28T07:28:26;1.48;;;0.95;;
40288;SDS011;28991;52.028;5.526;2023-07-28T07:30:53;1.27;;;1.10;;
40288;SDS011;28991;52.028;5.526;2023-07-28T07:33:19;1.27;;;1.10;;
40288;SDS011;28991;52.028;5.526;2023-07-28T07:35:45;1.00;;;0.90;;
40288;SDS011;28991;52.028;5.526;2023-07-28T07:38:10;1.23;;;1.13;;
40288;SDS011;28991;52.028;5.526;2023-07-28T07:40:36;1.38;;;1.10;;
40288;SDS011;28991;52.028;5.526;2023-07-28T07:43:02;1.13;;;0.90;;
40288;SDS011;28991;52.028;5.526;2023-07-28T07:45:28;1.50;;;1.05;;
40288;SDS011;28991;52.028;5.526;2023-07-28T07:47:58;2.10;;;1.20;;
40288;SDS011;28991;52.028;5.526;2023-07-28T07:50:24;1.08;;;0.98;;
40288;SDS011;28991;52.028;5.526;2023-07-28T07:52:49;1.10;;;1.02;;
40288;SDS011;28991;52.028;5.526;2023-07-28T07:55:15;1.52;;;1.30;;
40288;SDS011;28991;52.028;5.526;2023-07-28T07:57:41;1.20;;;1.10;;
40288;SDS011;28991;52.028;5.526;2023-07-28T08:00:07;2.35;;;1.20;;
40288;SDS011;28991;52.028;5.526;2023-07-28T08:02:33;1.17;;;1.08;;
40288;SDS011;28991;52.028;5.526;2023-07-28T08:04:59;0.80;;;0.80;;
40288;SDS011;28991;52.028;5.526;2023-07-28T08:07:25;1.73;;;1.33;;
40288;SDS011;28991;52.028;5.526;2023-07-28T08:09:51;2.67;;;1.65;;
40288;SDS011;28991;52.028;5.526;2023-07-28T08:12:16;1.65;;;1.33;;
40288;SDS011;28991;52.028;5.526;2023-07-28T08:14:42;2.10;;;1.25;;
40288;SDS011;28991;52.028;5.526;2023-07-28T08:17:09;1.98;;;1.20;;
40288;SDS011;28991;52.028;5.526;2023-07-28T08:19:34;1.52;;;1.23;;
40288;SDS011;28991;52.028;5.526;2023-07-28T08:22:01;2.17;;;0.90;;
40288;SDS011;28991;52.028;5.526;2023-07-28T08:24:28;2.50;;;1.30;;
40288;SDS011;28991;52.028;5.526;2023-07-28T08:26:54;1.70;;;1.05;;
40288;SDS011;28991;52.028;5.526;2023-07-28T08:29:20;1.40;;;1.30;;
40288;SDS011;28991;52.028;5.526;2023-07-28T08:31:46;1.52;;;1.42;;
40288;SDS011;28991;52.028;5.526;2023-07-28T08:34:12;3.03;;;1.55;;
40288;SDS011;28991;52.028;5.526;2023-07-28T08:36:37;2.05;;;1.33;;
40288;SDS011;28991;52.028;5.526;2023-07-28T08:39:03;1.70;;;1.10;;
40288;SDS011;28991;52.028;5.526;2023-07-28T08:41:29;1.52;;;1.30;;
40288;SDS011;28991;52.028;5.526;2023-07-28T08:43:55;1.95;;;1.15;;
40288;SDS011;28991;52.028;5.526;2023-07-28T08:46:21;1.08;;;0.93;;
40288;SDS011;28991;52.028;5.526;2023-07-28T08:48:46;1.42;;;1.02;;
40288;SDS011;28991;52.028;5.526;2023-07-28T08:51:12;1.00;;;1.00;;
40288;SDS011;28991;52.028;5.526;2023-07-28T08:53:39;1.10;;;1.00;;
40288;SDS011;28991;52.028;5.526;2023-07-28T08:56:05;1.08;;;0.98;;
40288;SDS011;28991;52.028;5.526;2023-07-28T08:58:31;1.23;;;1.00;;
40288;SDS011;28991;52.028;5.526;2023-07-28T09:00:56;1.08;;;0.98;;
40288;SDS011;28991;52.028;5.526;2023-07-28T09:03:25;1.15;;;1.00;;
40288;SDS011;28991;52.028;5.526;2023-07-28T09:05:53;1.02;;;1.00;;
40288;SDS011;28991;52.028;5.526;2023-07-28T09:08:27;1.85;;;0.88;;
40288;SDS011;28991;52.028;5.526;2023-07-28T09:10:55;0.60;;;0.60;;
40288;SDS011;28991;52.028;5.526;2023-07-28T09:13:21;0.70;;;0.70;;
40288;SDS011;28991;52.028;5.526;2023-07-28T09:15:47;0.90;;;0.90;;
40288;SDS011;28991;52.028;5.526;2023-07-28T09:18:13;0.75;;;0.73;;
40288;SDS011;28991;52.028;5.526;2023-07-28T09:20:41;1.27;;;0.80;;
40288;SDS011;28991;52.028;5.526;2023-07-28T09:23:09;0.68;;;0.68;;
40288;SDS011;28991;52.028;5.526;2023-07-28T09:25:36;1.00;;;0.90;;
40288;SDS011;28991;52.028;5.526;2023-07-28T09:28:03;0.75;;;0.75;;
40288;SDS011;28991;52.028;5.526;2023-07-28T09:30:43;0.80;;;0.80;;
40288;SDS011;28991;52.028;5.526;2023-07-28T09:33:10;0.70;;;0.70;;
40288;SDS011;28991;52.028;5.526;2023-07-28T09:35:36;0.73;;;0.73;;
40288;SDS011;28991;52.028;5.526;2023-07-28T09:38:15;1.05;;;0.95;;
40288;SDS011;28991;52.028;5.526;2023-07-28T09:40:41;1.48;;;0.93;;
40288;SDS011;28991;52.028;5.526;2023-07-28T09:43:08;1.42;;;1.10;;
40288;SDS011;28991;52.028;5.526;2023-07-28T09:45:35;0.85;;;0.85;;
40288;SDS011;28991;52.028;5.526;2023-07-28T09:48:01;1.08;;;0.75;;
40288;SDS011;28991;52.028;5.526;2023-07-28T09:50:32;1.05;;;0.95;;
40288;SDS011;28991;52.028;5.526;2023-07-28T09:53:01;1.45;;;0.80;;
40288;SDS011;28991;52.028;5.526;2023-07-28T09:55:28;0.73;;;0.70;;
40288;SDS011;28991;52.028;5.526;2023-07-28T09:57:55;1.15;;;0.90;;
40288;SDS011;28991;52.028;5.526;2023-07-28T10:00:22;0.80;;;0.80;;
40288;SDS011;28991;52.028;5.526;2023-07-28T10:02:49;0.85;;;0.85;;
40288;SDS011;28991;52.028;5.526;2023-07-28T10:05:18;1.08;;;0.98;;
40288;SDS011;28991;52.028;5.526;2023-07-28T10:07:44;0.70;;;0.70;;
40288;SDS011;28991;52.028;5.526;2023-07-28T10:10:12;0.95;;;0.95;;
40288;SDS011;28991;52.028;5.526;2023-07-28T10:15:15;0.70;;;0.70;;
40288;SDS011;28991;52.028;5.526;2023-07-28T10:17:43;0.98;;;0.90;;
40288;SDS011;28991;52.028;5.526;2023-07-28T10:23:14;1.00;;;0.90;;
40288;SDS011;28991;52.028;5.526;2023-07-28T10:25:42;1.10;;;1.05;;
40288;SDS011;28991;52.028;5.526;2023-07-28T10:31:02;0.88;;;0.88;;
40288;SDS011;28991;52.028;5.526;2023-07-28T10:35:59;1.23;;;1.13;;
40288;SDS011;28991;52.028;5.526;2023-07-28T10:41:28;1.35;;;1.13;;
40288;SDS011;28991;52.028;5.526;2023-07-28T10:43:53;1.10;;;1.00;;
40288;SDS011;28991;52.028;5.526;2023-07-28T10:46:20;0.93;;;0.93;;
40288;SDS011;28991;52.028;5.526;2023-07-28T10:48:47;1.23;;;1.10;;
40288;SDS011;28991;52.028;5.526;2023-07-28T10:51:24;1.00;;;1.00;;
40288;SDS011;28991;52.028;5.526;2023-07-28T10:53:55;1.60;;;1.50;;
40288;SDS011;28991;52.028;5.526;2023-07-28T10:56:21;1.25;;;1.15;;
40288;SDS011;28991;52.028;5.526;2023-07-28T10:58:47;1.25;;;1.05;;
40288;SDS011;28991;52.028;5.526;2023-07-28T11:01:31;1.20;;;1.10;;
40288;SDS011;28991;52.028;5.526;2023-07-28T11:06:37;1.48;;;1.38;;
40288;SDS011;28991;52.028;5.526;2023-07-28T11:09:07;1.27;;;1.17;;
40288;SDS011;28991;52.028;5.526;2023-07-28T11:11:34;1.38;;;1.27;;
40288;SDS011;28991;52.028;5.526;2023-07-28T11:14:01;1.45;;;1.35;;
40288;SDS011;28991;52.028;5.526;2023-07-28T11:16:28;1.25;;;1.15;;
40288;SDS011;28991;52.028;5.526;2023-07-28T11:19:00;1.50;;;1.40;;
40288;SDS011;28991;52.028;5.526;2023-07-28T11:21:38;1.40;;;1.30;;
40288;SDS011;28991;52.028;5.526;2023-07-28T11:24:05;1.30;;;1.20;;
40288;SDS011;28991;52.028;5.526;2023-07-28T11:26:34;1.60;;;1.30;;
40288;SDS011;28991;52.028;5.526;2023-07-28T11:29:00;1.30;;;1.20;;
40288;SDS011;28991;52.028;5.526;2023-07-28T11:31:25;1.45;;;1.35;;
40288;SDS011;28991;52.028;5.526;2023-07-28T11:33:51;1.65;;;1.40;;
40288;SDS011;28991;52.028;5.526;2023-07-28T11:38:49;1.50;;;1.40;;
40288;SDS011;28991;52.028;5.526;2023-07-28T11:41:15;1.45;;;1.35;;
40288;SDS011;28991;52.028;5.526;2023-07-28T11:43:41;1.60;;;1.50;;
40288;SDS011;28991;52.028;5.526;2023-07-28T11:46:33;1.67;;;1.50;;
40288;SDS011;28991;52.028;5.526;2023-07-28T11:51:47;1.42;;;1.33;;
40288;SDS011;28991;52.028;5.526;2023-07-28T11:54:16;1.95;;;1.85;;
40288;SDS011;28991;52.028;5.526;2023-07-28T11:56:46;1.67;;;1.58;;
40288;SDS011;28991;52.028;5.526;2023-07-28T11:59:16;1.80;;;1.70;;
40288;SDS011;28991;52.028;5.526;2023-07-28T12:01:57;1.95;;;1.50;;
40288;SDS011;28991;52.028;5.526;2023-07-28T12:04:27;1.60;;;1.50;;
40288;SDS011;28991;52.028;5.526;2023-07-28T12:12:16;1.70;;;1.60;;
40288;SDS011;28991;52.028;5.526;2023-07-28T12:14:43;2.13;;;1.92;;
40288;SDS011;28991;52.028;5.526;2023-07-28T12:17:14;2.55;;;2.08;;
40288;SDS011;28991;52.028;5.526;2023-07-28T12:22:42;2.00;;;1.90;;
40288;SDS011;28991;52.028;5.526;2023-07-28T12:25:09;2.20;;;2.00;;
40288;SDS011;28991;52.028;5.526;2023-07-28T12:27:35;3.10;;;2.15;;
40288;SDS011;28991;52.028;5.526;2023-07-28T12:30:02;2.08;;;1.90;;
40288;SDS011;28991;52.028;5.526;2023-07-28T12:32:29;2.45;;;2.25;;
40288;SDS011;28991;52.028;5.526;2023-07-28T12:34:54;2.15;;;1.92;;
40288;SDS011;28991;52.028;5.526;2023-07-28T12:37:20;2.30;;;2.10;;
40288;SDS011;28991;52.028;5.526;2023-07-28T12:39:48;2.33;;;2.13;;
40288;SDS011;28991;52.028;5.526;2023-07-28T12:42:14;2.22;;;2.00;;
40288;SDS011;28991;52.028;5.526;2023-07-28T12:44:40;2.20;;;2.00;;
40288;SDS011;28991;52.028;5.526;2023-07-28T12:47:06;2.30;;;2.20;;
40288;SDS011;28991;52.028;5.526;2023-07-28T12:49:32;1.98;;;1.73;;
40288;SDS011;28991;52.028;5.526;2023-07-28T12:52:00;2.85;;;2.58;;
40288;SDS011;28991;52.028;5.526;2023-07-28T12:54:26;2.83;;;2.25;;
40288;SDS011;28991;52.028;5.526;2023-07-28T12:56:55;2.30;;;2.10;;
40288;SDS011;28991;52.028;5.526;2023-07-28T12:59:20;2.35;;;2.15;;
40288;SDS011;28991;52.028;5.526;2023-07-28T13:01:46;2.25;;;2.05;;
40288;SDS011;28991;52.028;5.526;2023-07-28T13:04:12;3.05;;;2.78;;
40288;SDS011;28991;52.028;5.526;2023-07-28T13:06:37;1.90;;;1.80;;
40288;SDS011;28991;52.028;5.526;2023-07-28T13:09:03;2.47;;;2.28;;
40288;SDS011;28991;52.028;5.526;2023-07-28T13:11:29;2.25;;;2.08;;
40288;SDS011;28991;52.028;5.526;2023-07-28T13:13:55;2.47;;;2.10;;
40288;SDS011;28991;52.028;5.526;2023-07-28T13:16:21;2.42;;;2.22;;
40288;SDS011;28991;52.028;5.526;2023-07-28T13:18:47;2.42;;;2.25;;
40288;SDS011;28991;52.028;5.526;2023-07-28T13:21:12;2.55;;;2.35;;
40288;SDS011;28991;52.028;5.526;2023-07-28T13:23:41;2.40;;;2.20;;
40288;SDS011;28991;52.028;5.526;2023-07-28T13:26:07;2.42;;;2.22;;
40288;SDS011;28991;52.028;5.526;2023-07-28T13:28:32;2.38;;;2.17;;
40288;SDS011;28991;52.028;5.526;2023-07-28T13:31:00;2.60;;;2.40;;
40288;SDS011;28991;52.028;5.526;2023-07-28T13:33:26;2.47;;;2.28;;
40288;SDS011;28991;52.028;5.526;2023-07-28T13:35:52;2.67;;;2.47;;
40288;SDS011;28991;52.028;5.526;2023-07-28T13:38:18;2.78;;;2.58;;
40288;SDS011;28991;52.028;5.526;2023-07-28T13:40:43;2.60;;;2.40;;
40288;SDS011;28991;52.028;5.526;2023-07-28T13:43:09;3.13;;;2.83;;
40288;SDS011;28991;52.028;5.526;2023-07-28T13:45:34;2.42;;;2.22;;
40288;SDS011;28991;52.028;5.526;2023-07-28T13:48:00;3.03;;;2.40;;
40288;SDS011;28991;52.028;5.526;2023-07-28T13:50:26;2.42;;;2.22;;
40288;SDS011;28991;52.028;5.526;2023-07-28T13:52:51;3.17;;;2.88;;
40288;SDS011;28991;52.028;5.526;2023-07-28T13:55:17;3.03;;;2.70;;
40288;SDS011;28991;52.028;5.526;2023-07-28T13:57:43;3.42;;;2.80;;
40288;SDS011;28991;52.028;5.526;2023-07-28T14:00:08;3.45;;;3.15;;
40288;SDS011;28991;52.028;5.526;2023-07-28T14:02:35;3.15;;;2.83;;
40288;SDS011;28991;52.028;5.526;2023-07-28T14:05:02;3.58;;;3.28;;
40288;SDS011;28991;52.028;5.526;2023-07-28T14:07:29;3.35;;;2.78;;
40288;SDS011;28991;52.028;5.526;2023-07-28T14:09:55;3.17;;;2.95;;
40288;SDS011;28991;52.028;5.526;2023-07-28T14:12:20;3.22;;;2.83;;
40288;SDS011;28991;52.028;5.526;2023-07-28T14:14:46;3.00;;;2.80;;
40288;SDS011;28991;52.028;5.526;2023-07-28T14:17:11;3.20;;;3.00;;
40288;SDS011;28991;52.028;5.526;2023-07-28T14:19:38;3.20;;;2.90;;
40288;SDS011;28991;52.028;5.526;2023-07-28T14:22:04;3.25;;;2.95;;
40288;SDS011;28991;52.028;5.526;2023-07-28T14:24:30;3.20;;;2.90;;
40288;SDS011;28991;52.028;5.526;2023-07-28T14:26:56;3.95;;;2.88;;
40288;SDS011;28991;52.028;5.526;2023-07-28T14:29:21;2.92;;;2.72;;
40288;SDS011;28991;52.028;5.526;2023-07-28T14:31:47;2.92;;;2.72;;
40288;SDS011;28991;52.028;5.526;2023-07-28T14:34:13;2.83;;;2.63;;
40288;SDS011;28991;52.028;5.526;2023-07-28T14:36:39;3.35;;;3.05;;
40288;SDS011;28991;52.028;5.526;2023-07-28T14:39:05;3.15;;;2.85;;
40288;SDS011;28991;52.028;5.526;2023-07-28T14:41:31;3.13;;;2.92;;
40288;SDS011;28991;52.028;5.526;2023-07-28T14:43:57;3.03;;;2.72;;
40288;SDS011;28991;52.028;5.526;2023-07-28T14:46:22;3.47;;;3.20;;
40288;SDS011;28991;52.028;5.526;2023-07-28T14:48:50;3.55;;;3.25;;
40288;SDS011;28991;52.028;5.526;2023-07-28T14:51:16;3.53;;;3.20;;
40288;SDS011;28991;52.028;5.526;2023-07-28T14:53:41;3.28;;;2.97;;
40288;SDS011;28991;52.028;5.526;2023-07-28T14:56:07;3.50;;;3.20;;
40288;SDS011;28991;52.028;5.526;2023-07-28T14:58:33;3.22;;;2.92;;
40288;SDS011;28991;52.028;5.526;2023-07-28T15:00:59;3.47;;;3.17;;
40288;SDS011;28991;52.028;5.526;2023-07-28T15:03:27;3.33;;;3.03;;
40288;SDS011;28991;52.028;5.526;2023-07-28T15:05:53;3.35;;;3.05;;
40288;SDS011;28991;52.028;5.526;2023-07-28T15:08:20;3.40;;;3.10;;
40288;SDS011;28991;52.028;5.526;2023-07-28T15:10:45;3.17;;;2.88;;
40288;SDS011;28991;52.028;5.526;2023-07-28T15:13:11;3.42;;;3.13;;
40288;SDS011;28991;52.028;5.526;2023-07-28T15:15:37;2.85;;;2.65;;
40288;SDS011;28991;52.028;5.526;2023-07-28T15:18:02;2.67;;;2.47;;